createdAt,value
2022-12-18T00:01:27.925Z,-6.40
2022-12-18T00:03:57.002Z,-6.40
2022-12-18T00:06:25.324Z,-6.40
2022-12-18T00:08:52.266Z,-6.40
2022-12-18T00:11:24.976Z,-6.40
2022-12-18T00:13:52.827Z,-6.50
2022-12-18T00:16:22.715Z,-6.50
2022-12-18T00:18:51.625Z,-6.60
2022-12-18T00:21:19.905Z,-6.60
2022-12-18T00:23:47.783Z,-6.50
2022-12-18T00:26:19.339Z,-6.60
2022-12-18T00:28:46.888Z,-6.60
2022-12-18T00:31:21.632Z,-6.60
2022-12-18T00:33:50.030Z,-6.50
2022-12-18T00:36:21.740Z,-6.50
2022-12-18T00:38:49.253Z,-6.50
2022-12-18T00:41:37.422Z,-6.50
2022-12-18T00:44:04.810Z,-6.50
2022-12-18T00:46:31.906Z,-6.40
2022-12-18T00:48:58.920Z,-6.40
2022-12-18T00:51:26.497Z,-6.50
2022-12-18T00:53:53.877Z,-6.50
2022-12-18T00:56:20.682Z,-6.60
2022-12-18T00:58:47.515Z,-6.60
2022-12-18T01:01:14.612Z,-6.70
2022-12-18T01:03:42.328Z,-6.70
2022-12-18T01:06:11.340Z,-6.80
2022-12-18T01:08:38.285Z,-6.80
2022-12-18T01:11:21.824Z,-6.90
2022-12-18T01:13:49.018Z,-6.90
2022-12-18T01:16:17.711Z,-7.00
2022-12-18T01:18:44.726Z,-6.90
2022-12-18T01:21:14.342Z,-6.90
2022-12-18T01:23:42.049Z,-6.90
2022-12-18T01:26:11.685Z,-7.00
2022-12-18T01:28:39.217Z,-6.90
2022-12-18T01:31:19.912Z,-6.80
2022-12-18T01:33:46.840Z,-6.80
2022-12-18T01:36:18.870Z,-6.80
2022-12-18T01:38:47.577Z,-6.90
2022-12-18T01:41:15.818Z,-6.90
2022-12-18T01:43:59.357Z,-6.80
2022-12-18T01:46:27.818Z,-6.90
2022-12-18T01:49:01.138Z,-7.00
2022-12-18T01:51:30.699Z,-6.90
2022-12-18T01:53:58.497Z,-7.00
2022-12-18T01:56:25.387Z,-7.00
2022-12-18T01:59:03.215Z,-7.00
2022-12-18T02:01:32.071Z,-7.00
2022-12-18T02:04:26.485Z,-7.00
2022-12-18T02:07:05.820Z,-7.00
2022-12-18T02:09:59.413Z,-7.10
2022-12-18T02:12:36.058Z,-7.10
2022-12-18T02:15:10.832Z,-7.10
2022-12-18T02:18:12.246Z,-7.00
2022-12-18T02:21:07.943Z,-7.00
2022-12-18T02:23:47.643Z,-6.90
2022-12-18T02:26:20.901Z,-6.90
2022-12-18T02:28:50.909Z,-7.00
2022-12-18T02:31:22.278Z,-7.00
2022-12-18T02:33:50.209Z,-7.00
2022-12-18T02:36:18.581Z,-7.10
2022-12-18T02:38:46.906Z,-7.20
2022-12-18T02:41:15.561Z,-7.20
2022-12-18T02:43:54.401Z,-7.00
2022-12-18T02:46:30.166Z,-6.90
2022-12-18T02:49:14.815Z,-6.90
2022-12-18T02:52:01.316Z,-6.90
2022-12-18T02:54:51.469Z,-6.90
2022-12-18T02:57:24.095Z,-7.00
2022-12-18T03:00:02.325Z,-7.10
2022-12-18T03:02:41.449Z,-7.00
2022-12-18T03:05:17.089Z,-6.90
2022-12-18T03:07:51.666Z,-6.90
2022-12-18T03:10:22.861Z,-6.80
2022-12-18T03:13:13.803Z,-6.80
2022-12-18T03:15:47.687Z,-6.80
2022-12-18T03:18:30.494Z,-6.80
2022-12-18T03:21:01.305Z,-6.80
2022-12-18T03:23:33.348Z,-6.80
2022-12-18T03:26:07.290Z,-6.80
2022-12-18T03:28:39.717Z,-6.90
2022-12-18T03:31:09.689Z,-6.90
2022-12-18T03:33:44.980Z,-6.90
2022-12-18T03:36:12.007Z,-6.90
2022-12-18T03:38:38.883Z,-7.00
2022-12-18T03:41:28.152Z,-7.10
2022-12-18T03:44:12.855Z,-7.10
2022-12-18T03:47:21.506Z,-7.10
2022-12-18T03:49:54.938Z,-7.10
2022-12-18T03:52:28.016Z,-7.00
2022-12-18T03:54:59.064Z,-7.00
2022-12-18T03:57:29.437Z,-7.00
2022-12-18T04:00:04.045Z,-7.10
2022-12-18T04:02:33.665Z,-7.10
2022-12-18T04:05:04.133Z,-7.00
2022-12-18T04:07:31.467Z,-7.00
2022-12-18T04:10:00.811Z,-7.00
2022-12-18T04:12:29.660Z,-7.10
2022-12-18T04:14:56.494Z,-7.10
2022-12-18T04:17:23.944Z,-7.10
2022-12-18T04:19:50.885Z,-7.10
2022-12-18T04:22:17.696Z,-7.20
2022-12-18T04:24:44.532Z,-7.20
2022-12-18T04:27:11.322Z,-7.20
2022-12-18T04:29:38.097Z,-7.20
2022-12-18T04:32:05.022Z,-7.20
2022-12-18T04:34:31.747Z,-7.20
2022-12-18T04:36:58.566Z,-7.20
2022-12-18T04:39:25.478Z,-7.20
2022-12-18T04:41:52.907Z,-7.20
2022-12-18T04:44:19.713Z,-7.30
2022-12-18T04:46:46.762Z,-7.20
2022-12-18T04:49:13.708Z,-7.30
2022-12-18T04:51:40.635Z,-7.20
2022-12-18T04:54:07.422Z,-7.30
2022-12-18T04:56:34.304Z,-7.30
2022-12-18T04:59:01.093Z,-7.30
2022-12-18T05:01:34.047Z,-7.30
2022-12-18T05:04:02.681Z,-7.30
2022-12-18T05:06:29.609Z,-7.30
2022-12-18T05:08:56.524Z,-7.40
2022-12-18T05:11:23.368Z,-7.40
2022-12-18T05:13:50.146Z,-7.40
2022-12-18T05:16:17.275Z,-7.30
2022-12-18T05:18:44.403Z,-7.30
2022-12-18T05:21:11.211Z,-7.30
2022-12-18T05:23:38.496Z,-7.30
2022-12-18T05:26:07.366Z,-7.30
2022-12-18T05:28:35.614Z,-7.30
2022-12-18T05:31:06.052Z,-7.20
2022-12-18T05:33:35.619Z,-7.20
2022-12-18T05:36:04.482Z,-7.20
2022-12-18T05:38:32.870Z,-7.20
2022-12-18T05:40:59.840Z,-7.10
2022-12-18T05:43:27.951Z,-7.10
2022-12-18T05:45:55.119Z,-7.10
2022-12-18T05:48:22.498Z,-7.10
2022-12-18T05:50:51.172Z,-7.10
2022-12-18T05:53:20.937Z,-7.10
2022-12-18T05:55:48.597Z,-7.00
2022-12-18T05:58:16.001Z,-6.90
2022-12-18T06:00:45.630Z,-6.80
2022-12-18T06:03:14.492Z,-6.80
2022-12-18T06:05:44.520Z,-6.90
2022-12-18T06:08:12.597Z,-6.90
2022-12-18T06:10:39.773Z,-6.90
2022-12-18T06:13:07.571Z,-7.00
2022-12-18T06:15:37.786Z,-7.10
2022-12-18T06:18:04.976Z,-7.10
2022-12-18T06:20:33.607Z,-7.20
2022-12-18T06:23:01.079Z,-7.20
2022-12-18T06:25:28.111Z,-7.30
2022-12-18T06:27:55.144Z,-7.30
2022-12-18T06:30:21.995Z,-7.30
2022-12-18T06:32:56.781Z,-7.40
2022-12-18T06:35:24.212Z,-7.40
2022-12-18T06:37:51.140Z,-7.50
2022-12-18T06:40:18.141Z,-7.50
2022-12-18T06:42:44.945Z,-7.50
2022-12-18T06:45:12.517Z,-7.60
2022-12-18T06:47:39.348Z,-7.50
2022-12-18T06:50:06.748Z,-7.50
2022-12-18T06:52:34.593Z,-7.40
2022-12-18T06:55:01.751Z,-7.40
2022-12-18T06:57:28.792Z,-7.40
2022-12-18T06:59:55.736Z,-7.50
2022-12-18T07:02:22.701Z,-7.60
2022-12-18T07:04:50.859Z,-7.60
2022-12-18T07:07:17.768Z,-7.60
2022-12-18T07:09:44.625Z,-7.60
2022-12-18T07:12:11.440Z,-7.60
2022-12-18T07:14:38.265Z,-7.60
2022-12-18T07:17:05.200Z,-7.70
2022-12-18T07:19:33.657Z,-7.70
2022-12-18T07:22:00.702Z,-7.70
2022-12-18T07:24:27.655Z,-7.70
2022-12-18T07:26:54.809Z,-7.70
2022-12-18T07:29:22.419Z,-7.80
2022-12-18T07:31:50.261Z,-7.70
2022-12-18T07:34:17.646Z,-7.70
2022-12-18T07:36:44.510Z,-7.70
2022-12-18T07:39:12.663Z,-7.70
2022-12-18T07:41:45.211Z,-7.60
2022-12-18T07:44:13.881Z,-7.60
2022-12-18T07:46:40.758Z,-7.50
2022-12-18T07:49:07.825Z,-7.50
2022-12-18T07:51:34.634Z,-7.40
2022-12-18T07:54:01.460Z,-7.40
2022-12-18T07:56:29.953Z,-7.40
2022-12-18T07:58:58.209Z,-7.40
2022-12-18T08:01:25.282Z,-7.30
2022-12-18T08:03:52.711Z,-7.30
2022-12-18T08:06:23.357Z,-7.30
2022-12-18T08:08:53.906Z,-7.30
2022-12-18T08:11:20.950Z,-7.30
2022-12-18T08:13:48.315Z,-7.20
2022-12-18T08:16:16.495Z,-7.20
2022-12-18T08:18:43.283Z,-7.20
2022-12-18T08:21:16.027Z,-7.10
2022-12-18T08:23:43.863Z,-7.00
2022-12-18T08:26:12.145Z,-6.90
2022-12-18T08:28:39.136Z,-6.90
2022-12-18T08:31:08.366Z,-6.90
2022-12-18T08:33:36.780Z,-6.90
2022-12-18T08:36:04.831Z,-6.90
2022-12-18T08:38:33.410Z,-6.80
2022-12-18T08:41:06.101Z,-6.70
2022-12-18T08:43:51.461Z,-6.60
2022-12-18T08:46:20.453Z,-6.50
2022-12-18T08:48:47.923Z,-6.40
2022-12-18T08:51:17.471Z,-6.30
2022-12-18T08:53:45.476Z,-6.30
2022-12-18T08:56:13.507Z,-6.30
2022-12-18T08:58:43.098Z,-6.20
2022-12-18T09:01:14.895Z,-6.10
2022-12-18T09:03:42.539Z,-6.10
2022-12-18T09:06:10.045Z,-6.00
2022-12-18T09:08:38.312Z,-6.00
2022-12-18T09:11:05.428Z,-5.90
2022-12-18T09:13:32.191Z,-6.00
2022-12-18T09:15:59.113Z,-5.90
2022-12-18T09:18:26.134Z,-5.90
2022-12-18T09:20:53.893Z,-5.90
2022-12-18T09:23:23.369Z,-5.90
2022-12-18T09:25:50.103Z,-5.80
2022-12-18T09:28:19.957Z,-5.80
2022-12-18T09:30:58.950Z,-5.70
2022-12-18T09:33:25.744Z,-5.60
2022-12-18T09:35:52.945Z,-5.60
2022-12-18T09:38:20.862Z,-5.50
2022-12-18T09:40:54.628Z,-5.50
2022-12-18T09:43:35.985Z,-5.40
2022-12-18T09:46:08.047Z,-5.40
2022-12-18T09:48:48.688Z,-5.40
2022-12-18T09:51:28.383Z,-5.30
2022-12-18T09:54:02.682Z,-5.20
2022-12-18T09:56:32.750Z,-5.10
2022-12-18T09:59:01.368Z,-5.10
2022-12-18T10:01:38.793Z,-5.10
2022-12-18T10:04:10.913Z,-4.90
2022-12-18T10:07:09.068Z,-4.90
2022-12-18T10:09:45.840Z,-4.90
2022-12-18T10:12:15.618Z,-4.90
2022-12-18T10:14:54.112Z,-4.90
2022-12-18T10:17:39.345Z,-4.90
2022-12-18T10:20:38.619Z,-4.80
2022-12-18T10:23:26.500Z,-4.80
2022-12-18T10:26:04.400Z,-4.70
2022-12-18T10:28:34.556Z,-4.70
2022-12-18T10:31:01.533Z,-4.60
2022-12-18T10:33:33.845Z,-4.50
2022-12-18T10:36:01.230Z,-4.50
2022-12-18T10:38:32.981Z,-4.50
2022-12-18T10:41:21.745Z,-4.50
2022-12-18T10:43:48.964Z,-4.40
2022-12-18T10:46:20.798Z,-4.50
2022-12-18T10:48:55.184Z,-4.40
2022-12-18T10:51:30.624Z,-4.30
2022-12-18T10:54:22.968Z,-4.20
2022-12-18T10:56:50.017Z,-4.30
2022-12-18T10:59:30.909Z,-4.20
2022-12-18T11:02:36.988Z,-4.10
2022-12-18T11:05:23.295Z,-4.00
2022-12-18T11:07:51.607Z,-4.00
2022-12-18T11:10:19.817Z,-4.00
2022-12-18T11:12:46.583Z,-4.00
2022-12-18T11:15:28.705Z,-3.90
2022-12-18T11:17:55.604Z,-4.00
2022-12-18T11:20:30.713Z,-4.00
2022-12-18T11:23:13.831Z,-3.90
2022-12-18T11:25:40.844Z,-3.90
2022-12-18T11:28:35.698Z,-3.90
2022-12-18T11:31:11.635Z,-3.90
2022-12-18T11:33:53.351Z,-3.80
2022-12-18T11:36:39.801Z,-3.80
2022-12-18T11:39:32.326Z,-3.80
2022-12-18T11:42:26.371Z,-3.80
2022-12-18T11:45:00.380Z,-3.80
2022-12-18T11:47:30.777Z,-3.70
2022-12-18T11:50:02.219Z,-3.60
2022-12-18T11:52:40.036Z,-3.60
2022-12-18T11:55:25.792Z,-3.50
2022-12-18T11:58:04.614Z,-3.50
2022-12-18T12:00:31.640Z,-3.50
2022-12-18T12:03:17.085Z,-3.50
2022-12-18T12:06:10.268Z,-3.40
2022-12-18T12:09:07.085Z,-3.40
2022-12-18T12:12:18.646Z,-3.30
2022-12-18T12:15:06.532Z,-3.20
2022-12-18T12:17:49.171Z,-3.10
2022-12-18T12:20:24.220Z,-3.10
2022-12-18T12:23:22.482Z,-3.00
2022-12-18T12:26:03.934Z,-3.00
2022-12-18T12:29:20.860Z,-2.80
2022-12-18T12:32:20.655Z,-2.90
2022-12-18T12:35:00.243Z,-2.80
2022-12-18T12:37:57.464Z,-2.70
2022-12-18T12:40:51.148Z,-2.60
2022-12-18T12:43:22.269Z,-2.60
2022-12-18T12:45:52.414Z,-2.50
2022-12-18T12:48:38.064Z,-2.50
2022-12-18T12:51:28.705Z,-2.50
2022-12-18T12:53:57.976Z,-2.50
2022-12-18T12:56:52.950Z,-2.60
2022-12-18T12:59:38.373Z,-2.60
2022-12-18T13:02:31.942Z,-2.70
2022-12-18T13:05:20.212Z,-2.70
2022-12-18T13:07:58.650Z,-2.70
2022-12-18T13:10:28.133Z,-2.70
2022-12-18T13:12:58.467Z,-2.80
2022-12-18T13:15:47.553Z,-2.80
2022-12-18T13:18:20.692Z,-2.80
2022-12-18T13:21:01.202Z,-2.80
2022-12-18T13:23:38.311Z,-2.80
2022-12-18T13:26:09.296Z,-2.90
2022-12-18T13:29:05.100Z,-2.90
2022-12-18T13:31:41.808Z,-2.90
2022-12-18T13:34:33.814Z,-2.90
2022-12-18T13:37:50.877Z,-2.90
2022-12-18T13:44:25.488Z,-3.00
2022-12-18T13:46:53.272Z,-3.00
2022-12-18T13:49:37.110Z,-3.00
2022-12-18T13:52:04.122Z,-3.10
2022-12-18T13:54:41.367Z,-3.10
2022-12-18T13:57:44.734Z,-3.10
2022-12-18T14:00:17.785Z,-3.10
2022-12-18T14:02:46.699Z,-3.10
2022-12-18T14:05:47.610Z,-3.10
2022-12-18T14:08:17.237Z,-3.10
2022-12-18T14:10:49.279Z,-3.10
2022-12-18T14:13:19.559Z,-3.00
2022-12-18T14:15:49.898Z,-3.00
2022-12-18T14:18:22.445Z,-3.10
2022-12-18T14:20:53.162Z,-3.10
2022-12-18T14:23:46.501Z,-3.10
2022-12-18T14:26:28.954Z,-3.10
2022-12-18T14:29:03.893Z,-3.10
2022-12-18T14:31:32.581Z,-3.10
2022-12-18T14:34:02.047Z,-3.10
2022-12-18T14:36:30.684Z,-3.20
2022-12-18T14:39:00.896Z,-3.20
2022-12-18T14:41:28.798Z,-3.20
2022-12-18T14:43:56.006Z,-3.20
2022-12-18T14:46:41.048Z,-3.20
2022-12-18T14:49:32.570Z,-3.20
2022-12-18T14:52:07.416Z,-3.30
2022-12-18T14:54:38.253Z,-3.30
2022-12-18T14:57:05.078Z,-3.30
2022-12-18T14:59:33.209Z,-3.30
2022-12-18T15:02:02.870Z,-3.30
2022-12-18T15:04:36.815Z,-3.30
2022-12-18T15:07:24.521Z,-3.30
2022-12-18T15:10:12.446Z,-3.30
2022-12-18T15:12:43.167Z,-3.30
2022-12-18T15:15:35.299Z,-3.30
2022-12-18T15:18:09.656Z,-3.30
2022-12-18T15:20:49.523Z,-3.20
2022-12-18T15:23:23.385Z,-3.20
2022-12-18T15:25:57.740Z,-3.30
2022-12-18T15:28:26.184Z,-3.30
2022-12-18T15:31:12.475Z,-3.30
2022-12-18T15:33:53.826Z,-3.20
2022-12-18T15:36:26.772Z,-3.20
2022-12-18T15:38:57.882Z,-3.20
2022-12-18T15:41:35.854Z,-3.10
2022-12-18T15:44:04.237Z,-3.10
2022-12-18T15:46:32.009Z,-3.10
2022-12-18T15:49:02.320Z,-3.10
2022-12-18T15:51:34.299Z,-3.10
2022-12-18T15:54:04.850Z,-3.00
2022-12-18T15:56:50.932Z,-3.00
2022-12-18T15:59:19.999Z,-3.00
2022-12-18T16:01:49.315Z,-3.10
2022-12-18T16:04:23.077Z,-3.10
2022-12-18T16:09:38.189Z,-3.10
2022-12-18T16:12:06.116Z,-3.10
2022-12-18T16:14:33.120Z,-3.10
2022-12-18T16:17:02.193Z,-3.10
2022-12-18T16:19:29.494Z,-3.20
2022-12-18T16:21:58.878Z,-3.10
2022-12-18T16:24:31.825Z,-3.20
2022-12-18T16:27:00.864Z,-3.10
2022-12-18T16:29:29.292Z,-3.10
2022-12-18T16:32:00.204Z,-3.00
2022-12-18T16:34:35.243Z,-3.00
2022-12-18T16:37:06.272Z,-3.00
2022-12-18T16:39:35.445Z,-2.90
2022-12-18T16:42:15.541Z,-3.00
2022-12-18T16:44:43.323Z,-2.90
2022-12-18T16:47:11.103Z,-3.00
2022-12-18T16:49:41.835Z,-3.00
2022-12-18T16:52:08.760Z,-3.00
2022-12-18T16:54:36.739Z,-3.00
2022-12-18T16:57:07.863Z,-2.90
2022-12-18T16:59:34.710Z,-3.00
2022-12-18T17:02:05.713Z,-3.00
2022-12-18T17:04:32.675Z,-3.00
2022-12-18T17:06:59.449Z,-3.00
2022-12-18T17:09:26.408Z,-2.90
2022-12-18T17:11:54.380Z,-2.90
2022-12-18T17:14:24.077Z,-2.90
2022-12-18T17:17:19.140Z,-2.90
2022-12-18T17:19:38.974Z,-2.90
2022-12-18T17:22:05.895Z,-2.90
2022-12-18T17:24:35.152Z,-2.90
2022-12-18T17:27:03.103Z,-3.00
2022-12-18T17:29:30.076Z,-3.00
2022-12-18T17:31:57.268Z,-3.00
2022-12-18T17:34:25.556Z,-3.00
2022-12-18T17:36:52.398Z,-3.00
2022-12-18T17:39:20.566Z,-3.00
2022-12-18T17:41:48.799Z,-3.00
2022-12-18T17:44:16.807Z,-3.00
2022-12-18T17:46:44.364Z,-3.00
2022-12-18T17:49:12.254Z,-3.00
2022-12-18T17:51:39.229Z,-3.00
2022-12-18T17:54:06.287Z,-2.90
2022-12-18T17:56:33.247Z,-2.90
2022-12-18T17:59:00.497Z,-2.90
2022-12-18T18:01:27.857Z,-2.90
2022-12-18T18:04:00.190Z,-2.80
2022-12-18T18:06:27.546Z,-2.80
2022-12-18T18:08:54.675Z,-2.80
2022-12-18T18:11:41.725Z,-2.80
2022-12-18T18:14:14.685Z,-2.80
2022-12-18T18:16:43.987Z,-2.80
2022-12-18T18:19:13.751Z,-2.80
2022-12-18T18:21:43.198Z,-2.80
2022-12-18T18:24:12.780Z,-2.80
2022-12-18T18:26:41.575Z,-2.80
2022-12-18T18:29:09.388Z,-2.80
2022-12-18T18:31:40.765Z,-2.80
2022-12-18T18:34:09.117Z,-2.80
2022-12-18T18:36:35.911Z,-2.70
2022-12-18T18:39:03.139Z,-2.70
2022-12-18T18:41:30.683Z,-2.70
2022-12-18T18:43:58.971Z,-2.70
2022-12-18T18:46:26.633Z,-2.70
2022-12-18T18:48:55.066Z,-2.70
2022-12-18T18:51:22.605Z,-2.60
2022-12-18T18:53:52.202Z,-2.60
2022-12-18T18:56:56.109Z,-2.70
2022-12-18T18:59:10.924Z,-2.60
2022-12-18T19:01:37.796Z,-2.60
2022-12-18T19:04:05.107Z,-2.60
2022-12-18T19:06:31.994Z,-2.60
2022-12-18T19:09:02.826Z,-2.60
2022-12-18T19:11:48.743Z,-2.50
2022-12-18T19:14:16.475Z,-2.60
2022-12-18T19:16:45.505Z,-2.60
2022-12-18T19:19:13.498Z,-2.60
2022-12-18T19:21:40.746Z,-2.50
2022-12-18T19:24:07.927Z,-2.50
2022-12-18T19:26:37.560Z,-2.50
2022-12-18T19:29:06.377Z,-2.50
2022-12-18T19:31:36.420Z,-2.50
2022-12-18T19:34:06.796Z,-2.50
2022-12-18T19:36:35.580Z,-2.50
2022-12-18T19:39:07.683Z,-2.50
2022-12-18T19:41:34.659Z,-2.40
2022-12-18T19:44:08.345Z,-2.40
2022-12-18T19:46:35.691Z,-2.50
2022-12-18T19:49:02.746Z,-2.50
2022-12-18T19:51:31.541Z,-2.40
2022-12-18T19:54:01.394Z,-2.40
2022-12-18T19:56:31.512Z,-2.30
2022-12-18T19:58:58.579Z,-2.30
2022-12-18T20:01:26.871Z,-2.30
2022-12-18T20:03:55.214Z,-2.30
2022-12-18T20:06:45.929Z,-2.30
2022-12-18T20:09:12.904Z,-2.40
2022-12-18T20:11:41.778Z,-2.40
2022-12-18T20:14:13.044Z,-2.30
2022-12-18T20:16:40.596Z,-2.30
2022-12-18T20:19:08.482Z,-2.20
2022-12-18T20:21:35.550Z,-2.30
2022-12-18T20:24:02.384Z,-2.20
2022-12-18T20:26:29.372Z,-2.20
2022-12-18T20:28:56.669Z,-2.20
2022-12-18T20:31:23.980Z,-2.30
2022-12-18T20:33:52.158Z,-2.20
2022-12-18T20:36:23.593Z,-2.20
2022-12-18T20:38:58.145Z,-2.20
2022-12-18T20:41:38.175Z,-2.20
2022-12-18T20:44:10.961Z,-2.20
2022-12-18T20:46:50.572Z,-2.30
2022-12-18T20:49:17.490Z,-2.30
2022-12-18T20:51:44.403Z,-2.30
2022-12-18T20:54:12.003Z,-2.30
2022-12-18T20:56:39.016Z,-2.20
2022-12-18T20:59:05.734Z,-2.20
2022-12-18T21:01:32.715Z,-2.20
2022-12-18T21:04:00.664Z,-2.20
2022-12-18T21:06:27.694Z,-2.20
2022-12-18T21:08:54.486Z,-2.20
2022-12-18T21:11:39.880Z,-2.20
2022-12-18T21:14:11.780Z,-2.20
2022-12-18T21:16:40.286Z,-2.20
2022-12-18T21:19:07.160Z,-2.20
2022-12-18T21:21:38.678Z,-2.20
2022-12-18T21:24:07.394Z,-2.10
2022-12-18T21:26:34.305Z,-2.10
2022-12-18T21:29:03.841Z,-2.10
2022-12-18T21:31:33.312Z,-2.10
2022-12-18T21:34:02.134Z,-2.10
2022-12-18T21:36:29.971Z,-2.10
2022-12-18T21:38:57.984Z,-2.10
2022-12-18T21:41:47.195Z,-2.10
2022-12-18T21:44:16.618Z,-2.10
2022-12-18T21:46:54.527Z,-2.10
2022-12-18T21:49:22.585Z,-2.00
2022-12-18T21:51:51.108Z,-2.00
2022-12-18T21:54:18.271Z,-2.00
2022-12-18T21:56:51.059Z,-2.00
2022-12-18T21:59:26.820Z,-2.00
2022-12-18T22:01:55.277Z,-2.00
2022-12-18T22:04:22.812Z,-2.00
2022-12-18T22:06:50.100Z,-2.00
2022-12-18T22:09:20.174Z,-2.00
2022-12-18T22:11:47.657Z,-2.00
2022-12-18T22:14:15.331Z,-2.00
2022-12-18T22:16:42.956Z,-2.00
2022-12-18T22:19:11.629Z,-1.90
2022-12-18T22:21:40.931Z,-1.90
2022-12-18T22:24:15.126Z,-1.90
2022-12-18T22:26:42.484Z,-1.80
2022-12-18T22:29:36.008Z,-1.90
2022-12-18T22:32:04.579Z,-1.90
2022-12-18T22:34:36.305Z,-1.80
2022-12-18T22:37:03.519Z,-1.90
2022-12-18T22:39:30.914Z,-1.80
2022-12-18T22:41:58.168Z,-1.80
2022-12-18T22:44:25.018Z,-1.80
2022-12-18T22:47:00.619Z,-1.80
2022-12-18T22:49:33.504Z,-1.80
2022-12-18T22:52:02.042Z,-1.80
2022-12-18T22:54:28.830Z,-1.80
2022-12-18T22:56:55.595Z,-1.80
2022-12-18T22:59:23.434Z,-1.80
2022-12-18T23:01:57.112Z,-1.70
2022-12-18T23:04:28.805Z,-1.80
2022-12-18T23:07:05.060Z,-1.70
2022-12-18T23:09:32.860Z,-1.80
2022-12-18T23:11:59.776Z,-1.80
2022-12-18T23:14:27.590Z,-1.70
2022-12-18T23:16:54.395Z,-1.70
2022-12-18T23:19:23.441Z,-1.70
2022-12-18T23:21:51.267Z,-1.70
2022-12-18T23:24:18.236Z,-1.70
2022-12-18T23:26:45.035Z,-1.70
2022-12-18T23:29:11.747Z,-1.70
2022-12-18T23:31:39.797Z,-1.70
2022-12-18T23:34:08.839Z,-1.70
2022-12-18T23:36:42.745Z,-1.60
2022-12-18T23:39:20.886Z,-1.60
2022-12-18T23:41:56.415Z,-1.60
2022-12-18T23:44:23.251Z,-1.60
2022-12-18T23:46:50.026Z,-1.60
2022-12-18T23:49:16.867Z,-1.50
2022-12-18T23:51:43.630Z,-1.50
2022-12-18T23:54:10.775Z,-1.50
2022-12-18T23:56:37.710Z,-1.40
2022-12-18T23:59:04.791Z,-1.50
